Time;durP1;ratioP1;P1;durP2;ratioP2;P2;SDS_P1;SDS_P2;PMS_P1;PMS_P2;Temp;Humidity;BMP_temperature;BMP_pressure;BME280_temperature;BME280_humidity;BME280_pressure;Samples;Min_cycle;Max_cycle;Signal;HPM_P1;HPM_P2
2023/04/07 00:00:42;;;;;;;9.15;6.90;;;5.90;99.90;;;5.18;100.00;97225.28;5001643;28;20026;-49
2023/04/07 00:03:08;;;;;;;12.25;6.85;;;5.90;99.90;;;5.15;100.00;97214.00;5010061;28;20030;-50
2023/04/07 00:05:34;;;;;;;8.93;6.07;;;5.90;99.90;;;5.24;100.00;97233.00;5011094;28;20128;-48
2023/04/07 00:08:00;;;;;;;9.90;6.93;;;5.90;99.90;;;5.26;100.00;97226.88;5007191;28;20160;-50
2023/04/07 00:10:25;;;;;;;10.23;6.88;;;5.90;99.90;;;5.28;100.00;97224.22;5006927;28;20042;-45
2023/04/07 00:12:51;;;;;;;9.48;6.72;;;5.90;99.90;;;5.29;100.00;97224.19;5001763;28;20406;-49
2023/04/07 00:15:17;;;;;;;8.63;6.20;;;6.00;99.90;;;5.33;100.00;97219.78;5006520;28;20029;-49
2023/04/07 00:17:43;;;;;;;14.05;6.95;;;6.00;99.90;;;5.34;100.00;97224.94;5004195;28;20030;-48
2023/04/07 00:20:09;;;;;;;10.15;7.13;;;6.00;99.90;;;5.35;100.00;97217.97;5007761;28;20022;-48
2023/04/07 00:22:34;;;;;;;10.40;7.32;;;6.00;99.90;;;5.33;100.00;97211.94;5000866;28;20103;-48
2023/04/07 00:25:00;;;;;;;10.02;7.00;;;6.00;99.90;;;5.31;100.00;97205.84;5004822;28;20037;-47
2023/04/07 00:27:26;;;;;;;10.15;6.93;;;6.00;99.90;;;5.29;100.00;97205.91;5001524;28;20644;-49
2023/04/07 00:29:54;;;;;;;8.05;6.10;;;6.00;99.90;;;5.31;100.00;97198.88;5003589;28;20041;-49
2023/04/07 00:32:20;;;;;;;10.63;7.57;;;6.00;99.90;;;5.29;100.00;97199.78;5001791;28;20622;-49
2023/04/07 00:34:46;;;;;;;11.35;7.07;;;6.00;99.90;;;5.27;100.00;97202.41;5002002;28;20393;-49
2023/04/07 00:37:12;;;;;;;15.18;8.38;;;6.00;99.90;;;5.27;100.00;97196.34;5000981;28;20025;-49
2023/04/07 00:39:37;;;;;;;8.88;6.50;;;6.00;99.90;;;5.28;100.00;97190.22;5007098;28;20418;-49
2023/04/07 00:42:05;;;;;;;9.43;7.05;;;5.90;99.90;;;5.32;100.00;97190.13;5003718;28;20046;-45
2023/04/07 00:44:31;;;;;;;11.57;8.10;;;6.00;99.90;;;5.28;100.00;97188.47;5001620;28;20117;-49
2023/04/07 00:46:57;;;;;;;10.43;6.70;;;6.00;99.90;;;5.30;100.00;97185.81;5004729;28;21005;-49
2023/04/07 00:49:23;;;;;;;11.27;7.40;;;5.90;99.90;;;5.31;100.00;97185.81;5006614;28;20033;-48
2023/04/07 00:51:50;;;;;;;11.02;7.30;;;6.00;99.90;;;5.33;100.00;97180.53;4992332;28;20030;-48
2023/04/07 00:54:17;;;;;;;10.52;6.90;;;6.00;99.90;;;5.35;100.00;97181.38;5002861;28;20112;-48
2023/04/07 00:56:42;;;;;;;13.00;7.43;;;6.00;99.90;;;5.34;100.00;97177.03;5003103;28;20467;-49
2023/04/07 00:59:08;;;;;;;12.95;8.02;;;6.00;99.90;;;5.33;100.00;97170.09;5003734;28;20041;-49
2023/04/07 01:01:41;;;;;;;10.52;6.75;;;6.00;99.90;;;5.34;100.00;97169.19;4997247;28;20029;-46
2023/04/07 01:04:22;;;;;;;9.55;6.70;;;6.00;99.90;;;5.33;100.00;97165.72;5002216;28;20040;-49
2023/04/07 01:06:50;;;;;;;9.63;7.00;;;6.00;99.90;;;5.31;100.00;97164.00;5006424;28;20088;-49
2023/04/07 01:09:29;;;;;;;8.38;6.68;;;6.00;99.90;;;5.35;100.00;97168.31;4989506;28;20675;-48
2023/04/07 01:12:04;;;;;;;10.32;7.15;;;6.00;99.90;;;5.32;100.00;97153.50;4986531;28;20475;-49
2023/04/07 01:14:37;;;;;;;10.48;6.68;;;6.00;99.90;;;5.32;100.00;97160.50;4985658;28;20484;-47
2023/04/07 01:17:06;;;;;;;10.32;6.72;;;6.00;99.90;;;5.29;100.00;97147.47;4981851;28;20044;-48
2023/04/07 01:19:56;;;;;;;11.10;7.07;;;6.00;99.90;;;5.27;100.00;97144.03;4978546;28;20156;-49
2023/04/07 01:22:29;;;;;;;10.23;7.20;;;5.90;99.90;;;5.26;100.00;97140.56;4978565;28;20453;-48
2023/04/07 01:25:27;;;;;;;11.57;6.93;;;5.90;99.90;;;5.25;100.00;97135.38;4974144;28;20065;-47
2023/04/07 01:28:02;;;;;;;8.43;6.25;;;5.90;99.90;;;5.25;100.00;97133.63;4983284;28;20076;-49
2023/04/07 01:30:31;;;;;;;8.18;6.45;;;5.90;99.90;;;5.24;100.00;97136.25;4996270;28;20041;-46
2023/04/07 01:32:59;;;;;;;9.20;6.13;;;5.90;99.90;;;5.24;100.00;97125.78;4998229;28;20108;-50
2023/04/07 01:35:30;;;;;;;9.55;6.28;;;5.90;99.90;;;5.24;100.00;97131.91;4985726;28;20829;-49
2023/04/07 01:37:56;;;;;;;9.82;6.70;;;5.90;99.90;;;5.21;100.00;97131.09;4979840;28;20030;-49
2023/04/07 01:40:24;;;;;;;11.10;7.43;;;5.80;99.90;;;5.20;100.00;97132.84;4995318;28;20314;-47
2023/04/07 01:42:51;;;;;;;12.40;8.00;;;5.80;99.90;;;5.17;100.00;97125.06;4998563;28;20085;-49
2023/04/07 01:45:18;;;;;;;11.45;6.80;;;5.90;99.90;;;5.19;100.00;97130.25;4998790;28;20508;-49
2023/04/07 01:47:45;;;;;;;10.45;7.05;;;5.90;99.90;;;5.18;100.00;97128.53;5007095;28;20092;-46
2023/04/07 01:50:11;;;;;;;11.10;7.18;;;5.80;99.90;;;5.16;100.00;97116.34;4982085;28;20690;-48
2023/04/07 01:52:39;;;;;;;10.68;7.18;;;5.80;99.90;;;5.15;100.00;97117.25;4982293;28;20041;-49
2023/04/07 01:55:06;;;;;;;11.23;7.40;;;5.80;99.90;;;5.11;100.00;97118.19;5001619;28;20030;-46
2023/04/07 01:57:32;;;;;;;9.43;7.03;;;5.80;99.90;;;5.12;100.00;97114.69;4993998;28;20026;-46
2023/04/07 01:59:58;;;;;;;10.65;7.57;;;5.80;99.90;;;5.10;100.00;97111.25;4998156;28;20037;-49
2023/04/07 02:02:24;;;;;;;12.27;6.95;;;5.80;99.90;;;5.11;100.00;97107.72;4999850;28;20346;-49
2023/04/07 02:05:02;;;;;;;10.40;6.95;;;5.80;99.90;;;5.16;100.00;97118.13;5006159;28;20370;-48
2023/04/07 02:07:40;;;;;;;12.20;7.15;;;5.80;99.90;;;5.18;100.00;97116.31;4997988;28;20037;-46
2023/04/07 02:10:11;;;;;;;11.43;7.20;;;5.80;99.90;;;5.20;100.00;97111.06;4982443;28;20556;-46
2023/04/07 02:12:38;;;;;;;8.80;6.22;;;5.80;99.90;;;5.23;100.00;97106.63;4983376;28;20088;-48
2023/04/07 02:15:11;;;;;;;10.38;6.70;;;5.80;99.90;;;5.13;100.00;97090.28;4996812;28;20034;-45
2023/04/07 02:17:39;;;;;;;8.70;6.70;;;5.90;99.90;;;5.26;100.00;97095.28;5003688;28;20040;-49
2023/04/07 02:20:09;;;;;;;10.07;7.55;;;6.00;99.90;;;5.29;100.00;97096.06;4997585;28;20022;-49
2023/04/07 02:22:36;;;;;;;10.48;6.95;;;6.00;99.90;;;5.28;100.00;97096.09;5004279;28;20398;-48
2023/04/07 02:25:02;;;;;;;8.93;6.68;;;6.00;99.90;;;5.35;100.00;97097.69;4993709;28;20065;-48
2023/04/07 02:27:28;;;;;;;10.82;7.47;;;6.00;99.90;;;5.36;100.00;97099.41;5006103;28;20433;-49
2023/04/07 02:29:53;;;;;;;9.15;6.82;;;6.00;99.90;;;5.37;100.00;97097.66;4999901;28;20033;-46
2023/04/07 02:32:19;;;;;;;11.65;8.00;;;6.00;99.90;;;5.37;100.00;97092.44;4999904;28;20398;-48
2023/04/07 02:34:45;;;;;;;9.35;6.85;;;6.00;99.90;;;5.40;100.00;97094.97;4984637;28;20504;-48
2023/04/07 02:37:10;;;;;;;10.65;7.28;;;6.10;99.90;;;5.41;100.00;97089.72;5029430;22;20049;-40
2023/04/07 02:39:36;;;;;;;8.82;6.07;;;6.00;99.90;;;5.42;100.00;97091.44;5018197;28;20322;-40
2023/04/07 02:42:02;;;;;;;12.45;7.38;;;6.10;99.90;;;5.49;100.00;97092.16;5021117;28;20680;-40
2023/04/07 02:44:27;;;;;;;9.63;6.90;;;6.10;99.90;;;5.47;100.00;97084.38;5024051;28;20053;-40
2023/04/07 02:46:53;;;;;;;11.50;7.00;;;6.10;99.90;;;5.48;100.00;97083.44;5020244;28;20739;-40
2023/04/07 02:49:19;;;;;;;10.00;6.45;;;6.10;99.90;;;5.47;100.00;97076.50;5025830;28;20178;-37
2023/04/07 02:51:45;;;;;;;8.55;6.00;;;6.10;99.90;;;5.45;100.00;97072.19;5003170;28;20045;-38
2023/04/07 02:54:11;;;;;;;10.30;6.63;;;6.10;99.90;;;5.52;100.00;97076.41;5018538;28;20033;-38
2023/04/07 02:56:37;;;;;;;10.95;6.63;;;6.20;99.90;;;5.51;100.00;97070.31;5021377;28;20036;-37
2023/04/07 02:59:02;;;;;;;10.48;6.65;;;6.20;99.90;;;5.47;100.00;97071.28;5018942;28;20666;-40
2023/04/07 03:01:28;;;;;;;9.98;7.05;;;6.20;99.90;;;5.50;100.00;97083.41;5017992;28;20026;-38
2023/04/07 03:03:54;;;;;;;8.48;6.13;;;6.20;99.90;;;5.52;100.00;97073.78;5016550;28;20104;-38
2023/04/07 03:06:19;;;;;;;8.93;6.35;;;6.20;99.90;;;5.53;100.00;97073.75;5021385;28;20091;-38
2023/04/07 03:08:45;;;;;;;10.45;6.65;;;6.20;99.90;;;5.54;100.00;97075.50;5021713;28;20025;-37
2023/04/07 03:11:11;;;;;;;12.13;7.05;;;6.20;99.90;;;5.54;100.00;97065.03;5020231;28;20576;-38
2023/04/07 03:13:36;;;;;;;11.13;7.32;;;6.20;99.90;;;5.47;100.00;97058.22;5016376;28;20490;-38
2023/04/07 03:16:02;;;;;;;10.05;6.85;;;6.20;99.90;;;5.55;100.00;97063.25;5021142;28;20037;-38
2023/04/07 03:18:28;;;;;;;12.45;7.07;;;6.20;99.90;;;5.51;100.00;97049.38;5022934;28;20477;-38
2023/04/07 03:20:55;;;;;;;10.00;6.78;;;6.20;99.90;;;5.58;100.00;97059.69;5019153;28;20084;-38
2023/04/07 03:23:22;;;;;;;8.23;6.57;;;6.20;99.90;;;5.57;100.00;97042.31;5022600;28;20140;-37
2023/04/07 03:25:48;;;;;;;10.48;6.55;;;6.30;99.90;;;5.54;100.00;97041.47;5021204;28;20464;-37
2023/04/07 03:28:14;;;;;;;10.85;7.07;;;6.20;99.90;;;5.43;100.00;97026.91;5025387;28;20136;-38
2023/04/07 03:30:40;;;;;;;9.60;6.53;;;6.20;99.90;;;5.61;100.00;97060.50;5020177;28;20076;-37
2023/04/07 03:33:05;;;;;;;11.32;6.90;;;6.20;99.90;;;5.65;100.00;97058.66;5016277;28;20080;-37
2023/04/07 03:35:31;;;;;;;8.93;6.05;;;6.30;99.90;;;5.67;100.00;97054.25;5022605;28;20038;-37
2023/04/07 03:37:57;;;;;;;9.40;6.88;;;6.30;99.90;;;5.66;100.00;97049.94;5016969;28;20041;-38
2023/04/07 03:40:22;;;;;;;10.65;6.47;;;6.30;99.90;;;5.65;100.00;97045.59;5021567;28;20037;-38
2023/04/07 03:42:48;;;;;;;8.85;6.75;;;6.30;99.90;;;5.64;100.00;97043.88;5020834;28;20087;-38
2023/04/07 03:45:15;;;;;;;13.05;6.90;;;6.30;99.90;;;5.63;100.00;97047.38;5019004;28;20033;-38
2023/04/07 03:47:41;;;;;;;9.98;6.68;;;6.20;99.90;;;5.62;100.00;97051.75;5022790;28;20048;-37
2023/04/07 03:50:07;;;;;;;9.30;6.13;;;6.20;99.90;;;5.61;100.00;97047.41;5018961;28;20037;-38
2023/04/07 03:52:33;;;;;;;8.43;5.68;;;6.20;99.90;;;5.58;100.00;97042.28;5022297;28;20121;-38
2023/04/07 03:54:58;;;;;;;8.35;6.38;;;6.20;99.90;;;5.61;100.00;97041.31;5019351;28;20021;-38
2023/04/07 03:57:24;;;;;;;8.93;6.32;;;6.20;99.90;;;5.55;100.00;97032.72;5017473;28;20061;-38
2023/04/07 03:59:50;;;;;;;9.80;6.60;;;6.20;99.90;;;5.59;100.00;97033.50;5019171;28;20033;-40
2023/04/07 04:02:16;;;;;;;9.45;6.85;;;6.20;99.90;;;5.62;100.00;97035.22;5017298;28;20109;-40
2023/04/07 04:04:42;;;;;;;9.88;7.05;;;6.20;99.90;;;5.59;100.00;97038.75;4999429;28;20485;-40
2023/04/07 04:07:08;;;;;;;9.30;6.30;;;6.20;99.90;;;5.58;100.00;97039.66;5018617;28;20029;-40
2023/04/07 04:09:33;;;;;;;9.02;6.57;;;6.20;99.90;;;5.57;100.00;97037.91;5020589;28;20052;-40
2023/04/07 04:12:00;;;;;;;8.27;6.28;;;6.20;99.90;;;5.55;100.00;97037.09;5003766;28;20025;-40
2023/04/07 04:14:25;;;;;;;10.80;6.78;;;6.20;99.90;;;5.54;100.00;97035.38;5017020;28;20497;-40
2023/04/07 04:16:51;;;;;;;11.80;7.00;;;6.10;99.90;;;5.53;100.00;97031.06;5019389;28;20650;-40
2023/04/07 04:19:17;;;;;;;9.52;6.25;;;6.20;99.90;;;5.44;100.00;97019.03;5021752;28;20064;-40
2023/04/07 04:21:42;;;;;;;9.40;6.38;;;6.10;99.90;;;5.50;100.00;97031.09;5017204;28;20040;-40
2023/04/07 04:24:08;;;;;;;10.27;6.60;;;6.10;99.90;;;5.47;100.00;97028.56;5019759;28;20037;-40
2023/04/07 04:26:34;;;;;;;9.90;6.45;;;6.10;99.90;;;5.44;100.00;97031.25;5022790;28;20524;-40
2023/04/07 04:29:01;;;;;;;10.70;6.45;;;6.10;99.90;;;5.39;100.00;97028.72;5020477;28;20017;-40
2023/04/07 04:31:27;;;;;;;10.35;6.78;;;6.00;99.90;;;5.37;100.00;97025.28;5015589;28;20417;-40
2023/04/07 04:33:52;;;;;;;10.68;6.80;;;6.00;99.90;;;5.33;100.00;97023.66;5015204;28;20037;-40
2023/04/07 04:36:18;;;;;;;9.77;6.40;;;6.00;99.90;;;5.31;100.00;97023.69;5018993;28;20087;-40
2023/04/07 04:38:44;;;;;;;8.50;6.45;;;6.00;99.90;;;5.29;100.00;97016.75;5019904;28;20092;-40
2023/04/07 04:41:10;;;;;;;7.90;5.97;;;5.90;99.90;;;5.29;100.00;97022.88;5019034;28;20029;-40
2023/04/07 04:43:35;;;;;;;10.50;6.68;;;5.90;99.90;;;5.25;100.00;97026.41;5021047;28;20494;-38
2023/04/07 04:46:01;;;;;;;11.68;7.05;;;5.90;99.90;;;5.24;100.00;97029.06;5020645;28;20037;-38
2023/04/07 04:48:27;;;;;;;9.43;7.05;;;5.90;99.90;;;5.20;100.00;97017.81;5021974;28;20025;-40
2023/04/07 04:50:52;;;;;;;9.02;6.63;;;5.80;99.90;;;5.24;100.00;97029.06;5017150;28;20397;-39
2023/04/07 04:53:18;;;;;;;9.98;7.18;;;5.80;99.90;;;5.24;100.00;97029.06;5017831;28;20045;-38
2023/04/07 04:55:47;;;;;;;10.18;6.47;;;5.90;99.90;;;5.25;100.00;97025.56;5016249;28;20552;-39
2023/04/07 04:58:12;;;;;;;8.55;6.90;;;5.90;99.90;;;5.25;100.00;97031.66;5019739;28;20512;-39
2023/04/07 05:00:38;;;;;;;8.55;6.43;;;5.90;99.90;;;5.25;100.00;97031.66;5019030;28;20030;-39
2023/04/07 05:03:04;;;;;;;9.70;6.80;;;5.90;99.90;;;5.26;100.00;97037.75;5017343;28;20025;-39
2023/04/07 05:05:29;;;;;;;12.10;7.20;;;5.90;99.90;;;5.26;100.00;97032.53;5015993;28;20519;-39
2023/04/07 05:07:55;;;;;;;9.07;6.70;;;5.90;99.90;;;5.26;100.00;97037.75;5016552;28;20045;-39
2023/04/07 05:10:21;;;;;;;10.25;6.45;;;5.90;99.90;;;5.20;100.00;97027.41;5016515;28;20041;-38
2023/04/07 05:12:46;;;;;;;8.82;6.35;;;5.90;99.90;;;5.27;100.00;97039.47;5015742;28;20741;-39
2023/04/07 05:15:14;;;;;;;8.93;6.20;;;5.90;99.90;;;5.28;100.00;97036.81;5016382;28;20038;-39
2023/04/07 05:17:40;;;;;;;9.32;6.40;;;5.90;99.90;;;5.27;100.00;97037.69;5017219;28;20052;-39
2023/04/07 05:20:08;;;;;;;10.30;6.18;;;5.90;99.90;;;5.27;100.00;97040.31;5017447;28;20028;-39
2023/04/07 05:22:34;;;;;;;9.82;7.65;;;5.90;99.90;;;5.02;100.00;96992.06;5017847;28;20025;-39
2023/04/07 05:24:59;;;;;;;9.60;6.65;;;5.90;99.90;;;5.30;100.00;97042.00;5016552;28;20036;-39
2023/04/07 05:27:26;;;;;;;10.20;6.82;;;5.90;99.90;;;5.33;100.00;97039.34;5022915;28;20471;-39
2023/04/07 05:29:51;;;;;;;10.75;7.22;;;5.90;99.90;;;5.37;100.00;97046.22;5016670;28;20322;-39
2023/04/07 05:32:18;;;;;;;10.63;6.38;;;5.90;99.90;;;5.37;100.00;97030.53;5012202;28;20037;-39
2023/04/07 05:34:44;;;;;;;10.35;7.07;;;6.00;99.90;;;5.40;100.00;97030.47;5010477;28;20034;-39
2023/04/07 05:37:09;;;;;;;10.45;7.00;;;6.00;99.90;;;5.53;100.00;97036.28;5015393;28;20022;-38
2023/04/07 05:39:35;;;;;;;10.98;6.95;;;6.10;99.90;;;5.56;100.00;97041.41;5013129;28;20617;-39
2023/04/07 05:42:01;;;;;;;9.13;6.47;;;6.20;99.90;;;5.61;100.00;97031.72;5018310;28;20074;-39
2023/04/07 05:44:27;;;;;;;7.68;6.30;;;6.20;99.90;;;5.71;100.00;97035.00;5018087;28;20033;-39
2023/04/07 05:46:53;;;;;;;10.43;7.03;;;6.30;99.90;;;5.79;100.00;97040.03;5017708;28;20041;-38
2023/04/07 05:49:18;;;;;;;9.25;6.50;;;6.40;99.90;;;5.85;100.00;97039.88;5022027;28;20025;-39
2023/04/07 05:51:44;;;;;;;8.50;6.50;;;6.40;99.90;;;5.93;100.00;97038.81;5017563;28;21321;-39
2023/04/07 05:54:10;;;;;;;9.25;6.85;;;6.50;99.90;;;6.01;100.00;97038.66;5017478;28;20034;-39
2023/04/07 05:56:36;;;;;;;10.05;6.50;;;6.60;99.90;;;6.09;100.00;97041.09;5015812;28;20095;-39
2023/04/07 05:59:02;;;;;;;10.15;6.57;;;6.70;99.90;;;6.15;100.00;97042.69;5019361;28;20347;-39
2023/04/07 06:01:28;;;;;;;11.48;7.10;;;6.70;99.90;;;6.19;100.00;97037.34;5016487;28;20413;-38
2023/04/07 06:03:54;;;;;;;8.98;6.15;;;6.80;99.90;;;6.26;100.00;97045.88;5017449;28;20041;-39
2023/04/07 06:06:20;;;;;;;9.40;6.20;;;6.90;99.90;;;6.30;100.00;97043.16;5017026;28;20057;-39
2023/04/07 06:08:46;;;;;;;8.00;6.13;;;6.90;99.90;;;6.35;100.00;97037.78;5019385;28;20496;-39
2023/04/07 06:11:11;;;;;;;14.15;6.88;;;6.90;99.90;;;6.40;100.00;97041.16;5018775;28;20029;-39
2023/04/07 06:13:37;;;;;;;8.82;6.35;;;7.00;99.90;;;6.41;100.00;97035.03;5016349;28;20065;-39
2023/04/07 06:16:05;;;;;;;9.20;6.72;;;7.00;99.90;;;6.50;100.00;97045.25;5019053;28;20041;-39
2023/04/07 06:18:30;;;;;;;9.23;6.80;;;7.10;99.90;;;6.55;100.00;97050.41;5022568;28;20022;-38
2023/04/07 06:20:56;;;;;;;11.07;6.95;;;7.10;99.90;;;6.57;100.00;97048.59;5021284;28;20087;-38
2023/04/07 06:23:22;;;;;;;8.63;6.40;;;7.20;99.90;;;6.62;100.00;97049.34;5017523;28;20124;-39
2023/04/07 06:25:51;;;;;;;10.02;6.47;;;7.20;99.90;;;6.67;100.00;97044.78;5018284;28;20044;-39
2023/04/07 06:28:18;;;;;;;8.65;6.15;;;7.20;99.90;;;6.75;100.00;97051.59;5027016;28;20271;-39
2023/04/07 06:30:44;;;;;;;10.13;6.45;;;7.30;99.90;;;6.79;100.00;97050.63;5018462;28;20045;-39
2023/04/07 06:33:09;;;;;;;9.73;6.85;;;7.40;99.90;;;6.88;100.00;97047.75;5018980;28;20033;-39
2023/04/07 06:35:35;;;;;;;10.43;7.15;;;7.50;99.90;;;6.94;100.00;97044.94;5021517;28;20474;-38
2023/04/07 06:38:01;;;;;;;9.00;6.47;;;7.50;99.90;;;7.04;100.00;97050.81;5022077;28;20362;-39
2023/04/07 06:40:27;;;;;;;8.23;6.03;;;7.60;99.90;;;6.96;100.00;97024.78;5019683;28;20079;-39
2023/04/07 06:42:53;;;;;;;11.65;7.43;;;7.70;99.90;;;7.17;100.00;97048.69;4993190;28;20665;-39
2023/04/07 06:45:19;;;;;;;9.10;6.65;;;7.70;99.90;;;7.22;100.00;97041.53;5026423;28;20153;-39
2023/04/07 06:47:45;;;;;;;10.27;6.38;;;7.80;99.90;;;7.32;100.00;97043.00;5015205;28;20656;-39
2023/04/07 06:50:11;;;;;;;9.02;6.43;;;7.90;99.90;;;7.37;100.00;97046.31;5016429;28;20056;-39
2023/04/07 06:52:37;;;;;;;9.85;7.00;;;7.90;99.90;;;7.45;100.00;97046.13;5010299;28;20481;-39
2023/04/07 06:55:03;;;;;;;9.38;6.28;;;8.00;99.90;;;7.47;100.00;97040.81;5016266;28;20202;-39
2023/04/07 06:57:29;;;;;;;8.38;6.00;;;8.00;99.90;;;7.51;100.00;97038.03;5021132;28;20099;-39
2023/04/07 06:59:55;;;;;;;13.13;7.50;;;8.00;99.90;;;7.48;100.00;97043.38;5020361;28;20493;-39
2023/04/07 07:02:20;;;;;;;10.18;7.18;;;8.00;99.90;;;7.47;100.00;97038.19;5015278;28;20060;-39
2023/04/07 07:04:46;;;;;;;8.82;6.15;;;7.90;99.90;;;7.47;100.00;97035.56;5014067;28;20747;-39
2023/04/07 07:07:12;;;;;;;7.97;5.72;;;8.00;99.90;;;7.51;100.00;97039.81;5022642;28;20083;-39
2023/04/07 07:09:37;;;;;;;8.68;6.40;;;7.90;99.90;;;7.54;100.00;97042.34;5017802;28;20041;-39
2023/04/07 07:12:05;;;;;;;8.52;5.82;;;8.00;99.90;;;7.52;100.00;97041.50;5023184;28;20033;-39
2023/04/07 07:14:30;;;;;;;10.95;6.75;;;8.00;99.90;;;7.57;100.00;97047.50;5016511;28;20034;-39
2023/04/07 07:16:56;;;;;;;10.30;6.45;;;8.00;99.90;;;7.53;100.00;97040.63;5022246;28;20418;-39
2023/04/07 07:19:22;;;;;;;10.45;6.53;;;7.90;99.90;;;7.53;100.00;97038.00;5016183;28;20033;-39
2023/04/07 07:21:47;;;;;;;8.98;6.50;;;7.90;99.90;;;7.51;100.00;97045.06;5014153;28;20068;-39
2023/04/07 07:24:13;;;;;;;11.25;7.28;;;7.90;99.90;;;7.42;100.00;97031.31;5018219;28;20033;-39
2023/04/07 07:26:40;;;;;;;9.38;6.32;;;7.90;99.90;;;7.48;100.00;97034.66;5020695;28;20590;-39
2023/04/07 07:29:06;;;;;;;10.55;6.60;;;7.90;99.90;;;7.44;100.00;97047.00;5016123;28;20066;-39
2023/04/07 07:31:31;;;;;;;8.75;6.57;;;7.90;99.90;;;7.42;100.00;97040.94;5011302;28;20042;-38
2023/04/07 07:33:57;;;;;;;11.00;6.63;;;7.80;99.90;;;7.42;100.00;97049.66;5015995;28;20516;-39
2023/04/07 07:36:23;;;;;;;10.85;6.88;;;7.80;99.90;;;7.42;100.00;97054.91;5018069;28;20044;-38
2023/04/07 07:38:50;;;;;;;9.18;6.32;;;7.80;99.90;;;7.41;100.00;97049.72;5017647;28;20160;-39
2023/04/07 07:41:16;;;;;;;11.52;7.07;;;7.80;99.90;;;7.35;100.00;97060.41;5021968;28;20053;-39
2023/04/07 07:43:41;;;;;;;10.65;7.15;;;7.80;99.90;;;7.29;100.00;97047.47;5016244;28;20560;-39
2023/04/07 07:46:07;;;;;;;11.98;6.68;;;7.80;99.90;;;7.31;100.00;97056.16;5020845;28;20048;-39
2023/04/07 07:48:33;;;;;;;8.20;6.18;;;7.70;99.90;;;7.26;100.00;97051.88;5017852;28;20044;-39
2023/04/07 07:50:59;;;;;;;7.95;6.30;;;7.70;99.90;;;7.23;100.00;97061.59;5016875;28;20442;-39
2023/04/07 07:53:25;;;;;;;8.70;6.40;;;7.70;99.90;;;7.20;100.00;97048.59;5018491;28;20040;-39
2023/04/07 07:55:50;;;;;;;9.90;6.05;;;7.70;99.90;;;7.34;100.00;97056.03;5011174;28;20758;-38
2023/04/07 07:58:16;;;;;;;11.30;6.63;;;7.80;99.90;;;7.43;100.00;97056.66;5020531;28;20022;-39
2023/04/07 08:00:42;;;;;;;8.95;6.07;;;7.90;99.90;;;7.54;100.00;97047.59;5015853;28;20034;-39
2023/04/07 08:03:08;;;;;;;8.25;5.78;;;8.10;99.90;;;7.72;100.00;97052.28;5021326;28;20026;-39
2023/04/07 08:05:33;;;;;;;8.52;5.57;;;8.20;99.90;;;7.91;100.00;97054.31;5020053;28;20099;-38
2023/04/07 08:07:59;;;;;;;10.57;6.72;;;8.40;99.90;;;8.31;100.00;97047.75;5009407;28;20382;-39
2023/04/07 08:10:25;;;;;;;12.20;7.45;;;8.70;99.90;;;8.53;100.00;97037.44;5008646;28;20040;-39
2023/04/07 08:12:51;;;;;;;10.52;7.15;;;9.20;99.90;;;9.22;100.00;97055.97;5013559;28;20036;-39
2023/04/07 08:15:16;;;;;;;8.85;6.68;;;9.60;99.90;;;9.58;100.00;97059.91;5015643;28;20040;-39
2023/04/07 08:17:42;;;;;;;11.52;6.38;;;9.90;99.90;;;9.93;100.00;97064.66;5006254;28;20103;-39
2023/04/07 08:20:10;;;;;;;10.63;5.80;;;10.30;99.90;;;10.35;100.00;97062.16;5016622;28;20117;-39
2023/04/07 08:22:35;;;;;;;9.68;6.20;;;10.70;99.90;;;10.63;100.00;97069.78;5015597;28;20556;-40
2023/04/07 08:25:02;;;;;;;8.68;6.53;;;11.00;99.90;;;10.76;94.88;97078.88;5013504;28;20041;-39
2023/04/07 08:27:27;;;;;;;9.15;6.25;;;11.20;99.90;;;10.74;96.60;97057.00;5017265;28;20033;-39
2023/04/07 08:30:07;;;;;;;12.10;6.20;;;11.30;99.90;;;10.80;88.86;97076.97;5014011;28;20041;-39
2023/04/07 08:32:39;;;;;;;7.15;5.35;;;11.30;99.90;;;10.76;91.97;97076.22;5014086;28;20035;-39
2023/04/07 08:35:05;;;;;;;8.33;5.57;;;11.20;99.90;;;10.83;92.45;97075.06;5014779;28;20060;-39
2023/04/07 08:37:32;;;;;;;8.68;5.10;;;11.30;99.90;;;10.83;94.72;97076.84;5030804;22;20498;-47
2023/04/07 08:39:57;;;;;;;7.90;5.00;;;11.40;99.90;;;10.85;94.54;97078.47;5015530;28;20038;-46
2023/04/07 08:42:28;;;;;;;8.00;4.60;;;11.30;99.90;;;10.87;91.17;97079.28;5020273;28;20060;-44
2023/04/07 08:44:57;;;;;;;6.75;4.82;;;11.30;99.90;;;10.84;91.31;97082.06;5010836;28;20061;-48
2023/04/07 08:47:26;;;;;;;8.13;5.05;;;11.30;99.90;;;10.92;88.76;97084.34;5011727;28;20033;-49
2023/04/07 08:49:56;;;;;;;6.03;4.22;;;11.40;99.90;;;11.01;89.04;97080.47;5007227;28;20041;-47
2023/04/07 08:52:33;;;;;;;7.00;4.68;;;11.40;99.90;;;10.97;90.71;97087.66;5011237;28;20033;-48
2023/04/07 08:55:01;;;;;;;6.68;4.70;;;11.40;99.90;;;10.67;88.07;97077.47;5016024;28;20497;-49
2023/04/07 08:57:31;;;;;;;5.93;4.00;;;11.20;99.90;;;10.50;90.51;97080.84;5019487;28;20060;-51
2023/04/07 09:00:04;;;;;;;8.27;4.47;;;11.00;99.90;;;10.36;93.27;97074.44;5009457;28;20559;-49
2023/04/07 09:02:38;;;;;;;5.95;4.03;;;10.90;99.90;;;10.32;96.23;97071.06;5019196;28;20045;-51
2023/04/07 09:05:07;;;;;;;7.88;4.53;;;10.80;99.90;;;10.50;93.84;97082.63;5014916;28;20040;-51
2023/04/07 09:07:35;;;;;;;6.93;4.18;;;10.90;99.90;;;10.52;88.14;97080.78;5013972;28;20044;-48
2023/04/07 09:10:01;;;;;;;7.63;4.40;;;11.00;99.90;;;10.55;88.74;97079.78;5015254;28;20091;-49
2023/04/07 09:12:28;;;;;;;6.65;4.80;;;11.20;99.90;;;10.82;89.32;97076.00;5014853;28;20033;-51
2023/04/07 09:14:54;;;;;;;8.40;4.72;;;11.40;99.90;;;11.31;86.74;97095.88;5014510;28;20045;-49
2023/04/07 09:17:20;;;;;;;7.03;4.47;;;11.80;99.90;;;11.62;84.16;97093.53;5010053;28;20400;-50
2023/04/07 09:19:47;;;;;;;7.80;4.35;;;12.10;99.90;;;11.73;81.73;97082.47;5007863;28;20112;-50
2023/04/07 09:22:13;;;;;;;9.43;4.50;;;12.20;99.90;;;11.74;83.76;97083.34;5015605;28;20026;-48
2023/04/07 09:24:40;;;;;;;10.20;4.82;;;12.30;99.90;;;11.48;82.72;97080.09;5016233;28;20044;-50
2023/04/07 09:27:10;;;;;;;6.13;4.20;;;12.10;99.90;;;11.41;84.11;97087.47;5023109;28;20037;-50
2023/04/07 09:29:38;;;;;;;7.20;4.60;;;12.00;99.90;;;11.29;85.13;97088.03;5015727;28;20045;-50
2023/04/07 09:32:04;;;;;;;7.45;4.85;;;11.90;99.90;;;11.13;84.08;97087.84;5011539;28;20033;-46
2023/04/07 09:34:36;;;;;;;7.90;4.25;;;11.90;99.90;;;11.07;85.18;97080.19;5008706;28;20040;-49
2023/04/07 09:37:05;;;;;;;6.25;4.22;;;11.80;99.90;;;11.38;84.09;97089.41;4991552;28;20116;-49
2023/04/07 09:39:31;;;;;;;8.77;4.15;;;11.90;99.90;;;11.42;81.99;97083.88;4998573;28;20197;-49
2023/04/07 09:41:57;;;;;;;9.85;4.43;;;12.00;99.90;;;11.59;80.70;97085.78;5017513;28;20833;-50
2023/04/07 09:44:25;;;;;;;8.63;4.43;;;12.10;99.90;;;11.57;78.71;97077.03;5018328;28;20048;-48
2023/04/07 09:46:58;;;;;;;9.43;4.30;;;12.30;99.90;;;11.84;77.86;97081.97;5016290;28;20033;-48
2023/04/07 09:49:25;;;;;;;6.78;4.30;;;12.40;99.90;;;12.07;75.75;97080.91;5019520;28;20033;-46
2023/04/07 09:52:03;;;;;;;5.35;3.78;;;12.70;99.90;;;12.19;71.96;97088.25;4984450;28;20033;-48
2023/04/07 09:54:33;;;;;;;5.03;3.13;;;12.80;99.90;;;12.34;74.92;97089.28;5016487;28;20049;-49
2023/04/07 09:57:00;;;;;;;6.35;3.50;;;12.80;99.90;;;12.32;72.82;97082.38;4999033;28;20112;-49
2023/04/07 09:59:28;;;;;;;3.72;3.00;;;12.80;99.90;;;12.32;73.64;97082.38;5016018;28;20481;-49
2023/04/07 10:01:54;;;;;;;6.95;3.72;;;12.60;99.90;;;11.94;72.57;97088.56;5016341;28;20598;-49
2023/04/07 10:04:20;;;;;;;6.00;3.83;;;12.50;99.90;;;11.76;75.49;97084.13;5019405;28;20022;-49
2023/04/07 10:06:46;;;;;;;6.60;4.05;;;12.20;99.90;;;11.47;76.74;97088.97;5001930;28;20045;-51
2023/04/07 10:09:13;;;;;;;7.05;4.30;;;12.00;99.90;;;11.31;82.05;97086.16;5003973;28;20033;-50
2023/04/07 10:11:41;;;;;;;5.60;4.20;;;11.90;99.90;;;11.18;81.60;97093.78;5016285;28;20026;-48
2023/04/07 10:14:09;;;;;;;8.18;4.70;;;11.70;99.90;;;11.06;84.24;97084.59;5014982;28;20029;-50
2023/04/07 10:16:36;;;;;;;8.23;4.80;;;11.60;99.90;;;11.16;84.29;97090.34;5017587;28;20410;-48
2023/04/07 10:19:02;;;;;;;9.63;5.60;;;11.60;99.90;;;11.13;82.03;97089.63;5018791;28;20621;-48
2023/04/07 10:21:28;;;;;;;10.45;5.18;;;11.60;99.90;;;11.24;86.55;97082.09;4995570;28;20029;-49